Time;durP1;ratioP1;P1;durP2;ratioP2;P2;SDS_P1;SDS_P2;PMS_P1;PMS_P2;Temp;Humidity;BMP_temperature;BMP_pressure;BME280_temperature;BME280_humidity;BME280_pressure;Samples;Min_cycle;Max_cycle;Signal;HPM_P1;HPM_P2
2021/05/05 00:00:53;;;;;;;1.47;0.77;;;;;;;4.29;82.21;94480.22;4975429;28;20185;-76
2021/05/05 00:03:18;;;;;;;4.07;0.70;;;;;;;4.33;81.66;94487.53;4975410;28;20180;-77
2021/05/05 00:05:43;;;;;;;5.87;0.80;;;;;;;4.31;81.71;94484.28;4972926;28;20545;-77
2021/05/05 00:08:08;;;;;;;3.20;0.70;;;;;;;4.34;81.23;94478.06;4975164;28;20172;-77
2021/05/05 00:10:34;;;;;;;2.83;1.00;;;;;;;4.31;80.53;94491.19;4975012;28;20262;-78
2021/05/05 00:12:59;;;;;;;2.10;0.90;;;;;;;4.33;80.42;94491.84;4974930;28;20212;-76
2021/05/05 00:15:25;;;;;;;3.33;1.00;;;;;;;4.33;80.80;94491.84;4974257;28;20188;-77
2021/05/05 00:17:51;;;;;;;3.40;0.77;;;;;;;4.29;81.37;94493.06;4974908;28;20578;-77
2021/05/05 00:20:17;;;;;;;2.17;0.90;;;;;;;4.39;81.34;94489.56;4974964;28;20250;-77
2021/05/05 00:22:43;;;;;;;4.53;1.10;;;;;;;4.34;81.01;94502.03;4975267;28;20185;-77
2021/05/05 00:25:09;;;;;;;4.33;1.10;;;;;;;4.39;80.94;94499.03;4974355;28;20216;-77
2021/05/05 00:27:34;;;;;;;3.27;1.10;;;;;;;4.39;81.01;94496.44;4974593;28;20202;-77
2021/05/05 00:30:00;;;;;;;2.20;1.03;;;;;;;4.45;80.06;94495.91;4973772;28;20276;-76
2021/05/05 00:32:25;;;;;;;4.20;1.00;;;;;;;4.39;80.46;94488.75;4957244;28;20180;-78
2021/05/05 00:34:51;;;;;;;3.63;0.90;;;;;;;4.32;80.66;94477.38;4974446;28;20177;-78
2021/05/05 00:37:16;;;;;;;3.10;0.90;;;;;;;4.34;80.48;94480.66;4973898;28;20208;-78
2021/05/05 00:39:42;;;;;;;5.07;1.13;;;;;;;4.34;80.86;94481.47;4974921;28;20180;-76
2021/05/05 00:42:07;;;;;;;5.97;1.20;;;;;;;4.25;80.73;94459.94;4975052;28;20180;-77
2021/05/05 00:44:33;;;;;;;4.27;1.00;;;;;;;4.28;80.86;94450.34;4972984;28;20693;-77
2021/05/05 00:46:59;;;;;;;4.17;1.10;;;;;;;4.33;81.09;94443.00;4973609;28;20223;-77
2021/05/05 00:49:24;;;;;;;5.43;1.30;;;;;;;4.31;80.24;94425.16;4974381;28;20177;-77
2021/05/05 00:51:49;;;;;;;7.37;1.17;;;;;;;4.27;81.40;94421.25;4976129;28;20338;-77
2021/05/05 00:54:15;;;;;;;3.57;1.17;;;;;;;4.15;80.58;94443.72;4993188;28;20650;-77
2021/05/05 00:56:40;;;;;;;2.67;0.93;;;;;;;4.17;81.21;94438.44;4993443;28;20223;-77
2021/05/05 00:59:05;;;;;;;3.70;1.10;;;;;;;4.07;81.21;94427.38;5007180;28;20183;-78
2021/05/05 01:01:31;;;;;;;2.90;0.97;;;;;;;4.05;80.79;94417.19;4975431;28;20185;-77
2021/05/05 01:03:56;;;;;;;1.60;1.07;;;;;;;4.06;80.94;94416.25;4993155;28;20200;-77
2021/05/05 01:06:22;;;;;;;4.30;1.40;;;;;;;3.97;81.18;94410.16;4992378;28;20215;-77
2021/05/05 01:08:47;;;;;;;4.13;1.10;;;;;;;3.97;81.10;94424.75;4992989;28;20180;-77
2021/05/05 01:11:15;;;;;;;4.77;0.93;;;;;;;4.01;81.41;94425.31;4994172;28;20183;-75
2021/05/05 01:13:43;;;;;;;2.57;0.93;;;;;;;4.06;81.56;94418.00;4995643;28;20243;-78
2021/05/05 01:16:08;;;;;;;4.37;1.47;;;;;;;3.94;81.76;94423.28;4995134;28;20214;-78
2021/05/05 01:18:34;;;;;;;2.40;1.00;;;;;;;3.94;81.20;94407.88;4995597;28;20262;-78
2021/05/05 01:21:00;;;;;;;3.03;0.73;;;;;;;4.00;81.02;94406.53;4995560;28;20221;-78
2021/05/05 01:23:26;;;;;;;1.10;0.80;;;;;;;3.88;81.65;94416.09;4977445;28;20186;-78
2021/05/05 01:25:52;;;;;;;4.23;1.80;;;;;;;3.92;81.83;94416.66;4994803;28;20558;-78
2021/05/05 01:28:17;;;;;;;3.73;0.87;;;;;;;3.95;82.04;94411.25;4995586;28;20199;-75
2021/05/05 01:30:44;;;;;;;2.83;1.00;;;;;;;3.95;82.15;94416.38;4994566;28;20262;-78
2021/05/05 01:33:09;;;;;;;3.47;0.90;;;;;;;3.95;82.06;94424.09;4994594;28;20178;-77
2021/05/05 01:35:35;;;;;;;1.33;1.10;;;;;;;3.95;81.74;94424.09;4994871;28;20729;-78
2021/05/05 01:38:00;;;;;;;4.57;1.63;;;;;;;4.03;82.06;94418.28;4995401;28;20215;-77
2021/05/05 01:40:29;;;;;;;2.77;0.80;;;;;;;4.00;82.60;94423.72;4995487;28;20176;-76
2021/05/05 01:42:55;;;;;;;2.53;0.90;;;;;;;4.02;82.26;94419.25;4995227;28;20176;-77
2021/05/05 01:45:20;;;;;;;3.60;1.20;;;;;;;4.00;81.77;94419.38;4995420;28;20187;-78
2021/05/05 01:47:45;;;;;;;4.83;1.00;;;;;;;3.95;82.64;94421.53;4995598;28;20200;-78
2021/05/05 01:50:11;;;;;;;2.33;0.83;;;;;;;4.04;83.02;94430.19;4995608;28;20233;-78
2021/05/05 01:52:37;;;;;;;2.90;1.17;;;;;;;4.06;82.66;94439.38;4995150;28;20171;-78
2021/05/05 01:55:03;;;;;;;4.57;1.07;;;;;;;4.03;82.98;94429.38;4993889;28;20230;-76
2021/05/05 01:57:29;;;;;;;3.70;0.90;;;;;;;4.00;83.32;94413.44;4993409;28;20208;-77
2021/05/05 01:59:55;;;;;;;2.83;1.10;;;;;;;4.08;82.77;94406.66;4994984;28;20176;-76
2021/05/05 02:02:20;;;;;;;3.60;1.10;;;;;;;4.11;83.35;94408.16;4993727;28;20249;-78
2021/05/05 02:04:46;;;;;;;2.30;1.07;;;;;;;4.08;83.41;94398.16;4993660;28;20547;-78
2021/05/05 02:07:11;;;;;;;2.37;1.00;;;;;;;4.07;83.21;94409.38;4977778;28;20203;-78
2021/05/05 02:09:36;;;;;;;2.10;0.90;;;;;;;4.10;82.94;94412.47;4995364;28;20180;-77
2021/05/05 02:12:02;;;;;;;2.87;0.90;;;;;;;4.10;83.23;94407.34;4977958;28;20265;-77
2021/05/05 02:14:27;;;;;;;3.03;1.10;;;;;;;4.14;83.34;94403.53;4997628;28;20219;-78
2021/05/05 02:16:57;;;;;;;4.83;1.00;;;;;;;4.04;83.25;94402.72;4998981;28;20595;-76
2021/05/05 02:19:22;;;;;;;2.63;1.03;;;;;;;4.06;83.55;94392.31;4999299;28;20206;-78
2021/05/05 02:21:47;;;;;;;2.20;0.97;;;;;;;4.08;83.69;94400.72;4999290;28;20177;-78
2021/05/05 02:24:12;;;;;;;3.30;0.90;;;;;;;4.09;83.22;94410.03;4981188;28;20639;-75
2021/05/05 02:26:38;;;;;;;1.93;1.00;;;;;;;4.14;83.56;94408.66;4999035;28;20275;-78
2021/05/05 02:29:03;;;;;;;2.17;0.70;;;;;;;4.09;83.76;94407.47;4998870;28;20188;-77
2021/05/05 02:31:28;;;;;;;2.03;0.90;;;;;;;4.03;83.50;94401.13;4977998;28;20184;-78
2021/05/05 02:33:54;;;;;;;4.80;1.10;;;;;;;4.06;83.48;94411.09;4998533;28;20177;-78
2021/05/05 02:36:19;;;;;;;3.50;1.10;;;;;;;4.02;83.39;94417.47;4981217;28;20686;-77
2021/05/05 02:38:44;;;;;;;3.07;1.00;;;;;;;4.07;83.64;94419.66;4981649;28;20207;-78
2021/05/05 02:41:10;;;;;;;4.07;1.10;;;;;;;4.05;83.88;94422.34;4981411;28;20218;-78
2021/05/05 02:43:35;;;;;;;4.60;1.10;;;;;;;4.14;83.66;94426.66;4998857;28;20183;-77
2021/05/05 02:46:00;;;;;;;4.63;1.27;;;;;;;4.15;83.31;94420.59;4998292;28;20737;-78
2021/05/05 02:48:26;;;;;;;5.07;4.23;;;;;;;4.14;84.09;94429.22;4998336;28;20207;-78
2021/05/05 02:50:51;;;;;;;3.73;1.53;;;;;;;4.08;84.40;94427.22;4998353;28;20620;-78
2021/05/05 02:53:16;;;;;;;6.13;1.40;;;;;;;4.11;84.29;94434.66;4998081;28;20208;-78
2021/05/05 02:55:42;;;;;;;2.07;1.13;;;;;;;4.11;84.34;94432.09;4979709;28;20567;-78
2021/05/05 02:58:07;;;;;;;2.40;0.90;;;;;;;4.15;84.19;94428.31;4996976;28;20192;-78
2021/05/05 03:00:32;;;;;;;2.80;1.10;;;;;;;4.15;83.95;94423.16;4998342;28;20186;-78
2021/05/05 03:02:58;;;;;;;2.47;1.30;;;;;;;4.14;83.92;94421.53;4998025;28;20706;-77
2021/05/05 03:05:23;;;;;;;4.33;1.57;;;;;;;4.15;84.21;94423.16;4997717;28;20186;-78
2021/05/05 03:07:49;;;;;;;1.40;1.30;;;;;;;4.18;84.35;94416.94;4997739;28;20206;-78
2021/05/05 03:10:14;;;;;;;1.60;0.80;;;;;;;4.18;84.22;94429.78;4977011;28;20180;-77
2021/05/05 03:12:40;;;;;;;1.30;0.97;;;;;;;4.11;84.39;94421.81;4995938;28;20190;-78
2021/05/05 03:15:07;;;;;;;2.00;1.03;;;;;;;4.12;84.53;94420.03;4996599;28;20176;-78
2021/05/05 03:17:32;;;;;;;2.53;1.73;;;;;;;4.20;84.25;94425.31;4996469;28;20223;-77
2021/05/05 03:19:57;;;;;;;3.63;1.53;;;;;;;4.29;84.79;94419.34;4998117;28;20276;-78
2021/05/05 03:22:23;;;;;;;3.57;1.10;;;;;;;4.23;84.52;94425.84;4997737;28;20180;-78
2021/05/05 03:24:48;;;;;;;1.63;0.80;;;;;;;4.19;84.28;94426.25;4997056;28;20551;-78
2021/05/05 03:27:13;;;;;;;2.60;1.00;;;;;;;4.20;83.92;94420.97;4980249;28;20198;-78
2021/05/05 03:29:40;;;;;;;1.23;0.80;;;;;;;4.15;84.49;94418.03;4998256;28;20233;-78
2021/05/05 03:32:05;;;;;;;1.30;1.10;;;;;;;4.15;84.38;94433.44;4998161;28;20177;-77
2021/05/05 03:34:30;;;;;;;1.93;1.20;;;;;;;4.15;84.07;94443.72;4996887;28;20530;-77
2021/05/05 03:36:55;;;;;;;1.57;1.33;;;;;;;4.07;83.49;94451.28;4996541;28;20224;-77
2021/05/05 03:39:21;;;;;;;3.50;1.57;;;;;;;4.17;83.60;94452.09;4997030;28;20183;-77
2021/05/05 03:41:46;;;;;;;3.33;1.10;;;;;;;4.18;83.16;94455.47;4996800;28;20202;-78
2021/05/05 03:44:11;;;;;;;2.57;1.30;;;;;;;4.17;83.27;94461.56;4996991;28;20191;-77
2021/05/05 03:46:39;;;;;;;1.53;1.03;;;;;;;4.13;83.59;94453.31;4979233;28;20199;-77
2021/05/05 03:49:06;;;;;;;1.47;0.90;;;;;;;4.15;83.50;94451.44;4996932;28;20274;-75
2021/05/05 03:51:32;;;;;;;3.20;0.87;;;;;;;4.07;83.46;94464.13;4997140;28;20176;-77
2021/05/05 03:53:57;;;;;;;2.07;1.10;;;;;;;4.09;84.37;94451.97;4995677;28;20277;-78
2021/05/05 03:56:22;;;;;;;2.97;1.00;;;;;;;4.02;84.54;94443.16;4995790;28;20214;-78
2021/05/05 03:58:47;;;;;;;2.07;1.03;;;;;;;4.02;83.96;94445.72;4977574;28;20186;-77
2021/05/05 04:01:13;;;;;;;2.87;1.03;;;;;;;3.99;83.98;94443.44;4996060;28;20180;-77
2021/05/05 04:03:39;;;;;;;2.20;1.20;;;;;;;3.94;83.98;94435.31;4995739;28;20194;-77
2021/05/05 04:06:04;;;;;;;3.13;1.10;;;;;;;3.86;82.64;94442.88;4994665;28;20204;-77
2021/05/05 04:08:29;;;;;;;1.63;1.00;;;;;;;3.91;83.74;94441.53;4995706;28;20199;-78
2021/05/05 04:10:54;;;;;;;2.73;1.10;;;;;;;3.92;82.80;94447.50;4995676;28;20527;-78
2021/05/05 04:13:20;;;;;;;5.07;1.30;;;;;;;3.86;82.92;94436.00;4995845;28;20655;-78
2021/05/05 04:15:45;;;;;;;4.67;1.63;;;;;;;3.91;81.78;94446.69;4994467;28;20659;-78
2021/05/05 04:18:10;;;;;;;2.50;1.60;;;;;;;3.89;81.69;94448.56;4995880;28;20209;-77
2021/05/05 04:20:36;;;;;;;5.03;1.77;;;;;;;3.90;82.01;94450.19;4995744;28;20180;-76
2021/05/05 04:23:01;;;;;;;3.80;1.40;;;;;;;3.84;81.61;94448.16;4995598;28;20230;-78
2021/05/05 04:25:27;;;;;;;4.63;1.30;;;;;;;3.88;81.95;94453.81;4995309;28;20257;-77
2021/05/05 04:27:52;;;;;;;9.20;2.17;;;;;;;3.89;81.61;94450.34;4995463;28;20214;-76
2021/05/05 04:30:18;;;;;;;2.93;1.43;;;;;;;3.90;80.86;94464.81;4978508;28;20725;-78
2021/05/05 04:32:47;;;;;;;5.10;1.57;;;;;;;3.95;80.83;94473.72;4995384;28;20171;-77
2021/05/05 04:35:13;;;;;;;3.97;1.50;;;;;;;3.96;80.91;94469.38;4994231;28;20179;-78
2021/05/05 04:37:39;;;;;;;5.90;1.40;;;;;;;3.90;80.67;94470.75;4994283;28;20234;-77
2021/05/05 04:40:05;;;;;;;6.10;1.60;;;;;;;3.98;81.28;94481.16;4977672;28;20203;-77
2021/05/05 04:42:31;;;;;;;2.63;1.50;;;;;;;4.01;81.69;94485.22;4995283;28;20191;-77
2021/05/05 04:44:56;;;;;;;3.60;1.20;;;;;;;4.03;81.68;94488.47;4994651;28;20709;-78
2021/05/05 04:47:22;;;;;;;3.23;1.43;;;;;;;4.04;81.71;94496.97;4995596;28;20805;-77
2021/05/05 04:49:47;;;;;;;3.73;2.20;;;;;;;4.04;82.45;94496.97;4995934;28;20191;-77
2021/05/05 04:52:12;;;;;;;6.43;1.77;;;;;;;4.05;82.30;94488.31;4995646;28;20168;-77
2021/05/05 04:54:38;;;;;;;3.43;1.60;;;;;;;4.11;81.95;94503.22;4977621;28;20184;-78
2021/05/05 04:57:03;;;;;;;3.10;1.33;;;;;;;4.03;81.91;94500.50;4995085;28;20263;-76
2021/05/05 04:59:28;;;;;;;4.73;2.33;;;;;;;4.09;82.42;94511.06;4993293;28;20198;-78
2021/05/05 05:01:54;;;;;;;7.37;1.90;;;;;;;3.98;81.62;94518.88;4975968;28;20174;-80
2021/05/05 05:04:19;;;;;;;4.17;1.77;;;;;;;4.03;82.34;94519.28;4970036;28;20191;-77
2021/05/05 05:06:44;;;;;;;6.07;1.70;;;;;;;4.11;82.14;94511.72;4970592;28;20224;-78
2021/05/05 05:09:10;;;;;;;9.90;2.10;;;;;;;4.13;80.92;94512.41;4975231;28;20239;-78
2021/05/05 05:11:35;;;;;;;4.47;2.00;;;;;;;4.19;81.17;94522.16;4972392;28;20184;-78
2021/05/05 05:14:00;;;;;;;4.03;1.60;;;;;;;4.29;80.30;94521.34;4974106;28;20195;-78
2021/05/05 05:16:26;;;;;;;4.00;2.27;;;;;;;4.34;80.17;94532.06;4961914;28;20239;-77
2021/05/05 05:18:51;;;;;;;4.80;2.07;;;;;;;4.41;79.09;94523.63;4956203;28;20193;-77
2021/05/05 05:21:16;;;;;;;4.67;1.50;;;;;;;4.29;78.28;94531.63;4973295;28;20716;-77
2021/05/05 05:23:43;;;;;;;4.60;1.90;;;;;;;4.39;78.18;94540.16;4955457;28;20728;-77
2021/05/05 05:26:08;;;;;;;6.57;1.60;;;;;;;4.28;75.75;94535.16;4972229;28;20201;-77
2021/05/05 05:28:33;;;;;;;5.63;1.77;;;;;;;4.25;75.79;94542.19;4972503;28;20221;-77
2021/05/05 05:30:59;;;;;;;6.63;1.57;;;;;;;4.18;76.29;94541.09;4973450;28;20200;-78
2021/05/05 05:33:25;;;;;;;5.47;1.90;;;;;;;4.12;77.73;94549.31;4974772;28;20501;-78
2021/05/05 05:35:51;;;;;;;5.37;1.80;;;;;;;4.06;77.71;94554.16;4974784;28;20239;-78
2021/05/05 05:38:16;;;;;;;6.77;1.60;;;;;;;4.05;77.84;94557.69;4969124;28;20229;-76
2021/05/05 05:40:41;;;;;;;6.67;2.00;;;;;;;4.04;78.07;94559.44;4964403;28;20185;-77
2021/05/05 05:43:07;;;;;;;5.00;1.60;;;;;;;4.02;78.47;94556.19;4974054;28;20792;-78
2021/05/05 05:45:32;;;;;;;3.97;1.90;;;;;;;4.14;78.86;94567.16;4973874;28;20193;-77
2021/05/05 05:47:57;;;;;;;5.27;1.67;;;;;;;4.16;78.15;94563.53;4975905;28;20204;-78
2021/05/05 05:50:23;;;;;;;4.33;2.27;;;;;;;4.31;78.10;94566.53;4977683;28;20180;-77
2021/05/05 05:52:48;;;;;;;6.80;2.80;;;;;;;4.50;77.83;94568.28;4978602;28;20210;-77
2021/05/05 05:55:16;;;;;;;5.43;2.30;;;;;;;5.05;76.88;94566.81;4977538;28;20184;-78
2021/05/05 05:57:43;;;;;;;6.20;1.90;;;;;;;5.30;74.96;94569.72;4968971;28;20797;-74
2021/05/05 06:00:10;;;;;;;8.00;2.30;;;;;;;5.68;74.53;94572.19;4945241;28;20192;-75
2021/05/05 06:02:36;;;;;;;4.10;1.90;;;;;;;5.86;72.49;94572.25;4938701;28;20198;-76
2021/05/05 06:05:01;;;;;;;6.17;2.97;;;;;;;6.08;72.52;94567.69;4933987;28;20196;-76
2021/05/05 06:07:26;;;;;;;8.07;2.23;;;;;;;6.04;72.15;94574.09;4951072;28;20200;-75
2021/05/05 06:09:52;;;;;;;4.53;1.97;;;;;;;5.69;71.25;94580.72;4953790;28;20657;-76
2021/05/05 06:12:17;;;;;;;10.47;2.27;;;;;;;5.54;72.13;94589.84;4975161;28;20197;-74
2021/05/05 06:14:42;;;;;;;6.93;1.90;;;;;;;5.25;73.03;94585.59;4956936;28;20188;-75
2021/05/05 06:17:08;;;;;;;6.67;1.70;;;;;;;5.38;73.40;94593.00;4974672;28;20212;-75
2021/05/05 06:19:33;;;;;;;5.60;1.63;;;;;;;5.52;72.86;94589.19;4975685;28;20187;-77
2021/05/05 06:21:58;;;;;;;4.53;1.70;;;;;;;7.39;67.05;94599.69;4976429;28;20200;-77
2021/05/05 06:24:24;;;;;;;5.57;1.80;;;;;;;8.01;61.56;94609.06;4976203;28;20172;-77
2021/05/05 06:26:49;;;;;;;4.93;1.90;;;;;;;9.28;58.54;94600.19;4975662;28;20200;-77
2021/05/05 06:29:14;;;;;;;7.70;1.50;;;;;;;10.33;55.64;94605.28;4958590;28;20189;-76
2021/05/05 06:31:40;;;;;;;6.40;2.23;;;;;;;11.30;52.50;94620.28;4958734;28;20180;-77
2021/05/05 06:34:05;;;;;;;8.97;1.50;;;;;;;10.12;56.01;94621.41;4959483;28;20215;-77
2021/05/05 06:36:31;;;;;;;2.17;1.50;;;;;;;9.94;55.41;94619.03;4975723;28;20220;-77
2021/05/05 06:38:57;;;;;;;7.40;1.70;;;;;;;9.10;58.15;94622.84;4976751;28;20215;-78
2021/05/05 06:41:22;;;;;;;3.57;1.40;;;;;;;8.54;60.74;94639.06;4969124;28;20180;-77
2021/05/05 06:43:47;;;;;;;7.57;1.90;;;;;;;7.58;63.02;94640.00;4975068;28;20181;-77
2021/05/05 06:46:13;;;;;;;5.47;1.33;;;;;;;7.11;64.39;94642.06;4975401;28;20672;-78
2021/05/05 06:48:38;;;;;;;5.27;1.43;;;;;;;6.87;63.76;94642.66;4980289;28;20195;-78
2021/05/05 06:51:04;;;;;;;6.57;1.60;;;;;;;6.75;65.09;94649.81;4974171;28;20773;-78
2021/05/05 06:53:29;;;;;;;8.60;2.17;;;;;;;6.24;65.15;94651.19;4975695;28;20203;-77
2021/05/05 06:55:55;;;;;;;8.73;2.00;;;;;;;6.74;65.48;94660.28;4974174;28;20228;-76
2021/05/05 06:58:20;;;;;;;9.63;2.20;;;;;;;6.42;65.57;94656.38;4975657;28;20184;-76
2021/05/05 07:00:45;;;;;;;4.20;1.80;;;;;;;6.58;65.62;94667.84;4975058;28;20560;-79
2021/05/05 07:03:11;;;;;;;6.77;1.67;;;;;;;6.29;65.36;94673.97;4976580;28;20188;-78
2021/05/05 07:05:36;;;;;;;3.83;1.57;;;;;;;7.89;62.85;94673.97;4958385;28;20193;-79
2021/05/05 07:08:02;;;;;;;4.87;1.90;;;;;;;9.02;58.28;94677.22;4976584;28;20251;-78
2021/05/05 07:10:27;;;;;;;11.40;1.90;;;;;;;9.93;54.27;94677.06;4970400;28;20590;-75
2021/05/05 07:12:53;;;;;;;5.17;1.57;;;;;;;11.57;51.10;94683.13;4964639;28;20204;-78
2021/05/05 07:15:18;;;;;;;6.97;1.53;;;;;;;10.56;51.19;94675.47;4955282;28;20177;-77
2021/05/05 07:17:43;;;;;;;9.47;1.93;;;;;;;9.28;52.19;94667.53;4973936;28;20206;-77
2021/05/05 07:20:09;;;;;;;3.83;1.40;;;;;;;8.65;55.27;94665.44;4974840;28;20204;-77
2021/05/05 07:22:34;;;;;;;2.53;1.30;;;;;;;8.17;57.64;94677.19;4974349;28;20203;-78
2021/05/05 07:25:00;;;;;;;5.10;1.73;;;;;;;6.93;59.27;94678.22;4957328;28;20208;-78
2021/05/05 07:27:25;;;;;;;6.87;1.60;;;;;;;6.88;61.58;94675.25;4975324;28;20278;-78
2021/05/05 07:29:51;;;;;;;4.30;2.10;;;;;;;6.71;63.21;94679.41;4975730;28;20192;-78
2021/05/05 07:32:16;;;;;;;7.80;2.03;;;;;;;6.69;62.48;94683.91;4975681;28;20188;-78
2021/05/05 07:34:42;;;;;;;3.87;1.63;;;;;;;6.45;61.16;94681.91;4956654;28;20183;-77
2021/05/05 07:37:12;;;;;;;6.87;1.77;;;;;;;6.49;61.29;94667.75;4974698;28;20208;-78
2021/05/05 07:47:40;;;;;;;6.27;1.80;;;;;;;7.02;61.22;94672.16;4972059;28;20274;-78
2021/05/05 07:50:09;;;;;;;5.17;2.13;;;;;;;6.96;61.32;94695.16;4958395;28;20180;-78
2021/05/05 07:52:34;;;;;;;6.83;2.07;;;;;;;6.75;61.50;94680.78;4976722;28;20184;-79
2021/05/05 07:55:01;;;;;;;3.53;1.30;;;;;;;6.40;61.76;94693.59;4972188;28;20187;-82
2021/05/05 07:57:26;;;;;;;4.23;1.53;;;;;;;5.85;63.02;94689.16;4974553;28;20570;-81
2021/05/05 07:59:52;;;;;;;5.67;2.60;;;;;;;6.46;62.35;94690.44;4941387;28;20455;-81
2021/05/05 08:02:17;;;;;;;4.30;1.90;;;;;;;6.66;61.11;94699.69;4974674;28;20671;-83
2021/05/05 08:04:49;;;;;;;4.67;1.57;;;;;;;6.80;60.02;94685.47;4969625;28;20188;-77
2021/05/05 08:07:16;;;;;;;8.17;2.00;;;;;;;6.94;60.01;94694.50;4972937;28;20688;-79
2021/05/05 08:09:41;;;;;;;3.00;1.40;;;;;;;7.03;58.11;94681.53;4975148;28;20184;-78
2021/05/05 08:12:07;;;;;;;3.60;1.70;;;;;;;6.87;58.06;94676.22;4957188;28;20200;-78
2021/05/05 08:14:32;;;;;;;6.70;1.97;;;;;;;6.97;58.95;94684.69;4974375;28;20188;-77
2021/05/05 08:16:58;;;;;;;3.53;1.37;;;;;;;6.72;60.12;94682.84;4974538;28;20216;-78
2021/05/05 08:19:23;;;;;;;9.33;2.03;;;;;;;6.83;60.89;94695.53;4974508;28;20212;-78
2021/05/05 08:21:48;;;;;;;6.27;1.70;;;;;;;6.44;60.21;94700.06;4974749;28;20212;-78
2021/05/05 08:24:14;;;;;;;4.73;1.60;;;;;;;6.20;61.83;94701.41;4974413;28;20234;-78
2021/05/05 08:26:40;;;;;;;7.13;1.57;;;;;;;6.03;63.55;94699.56;4974556;28;20235;-78
2021/05/05 08:29:05;;;;;;;4.17;1.50;;;;;;;6.13;61.87;94709.84;4975834;28;20189;-79
2021/05/05 08:31:37;;;;;;;6.00;1.73;;;;;;;6.12;59.74;94703.06;5090897;27;20525;-78
2021/05/05 08:34:02;;;;;;;5.43;1.40;;;;;;;6.43;60.54;94708.78;5072529;28;20185;-78
2021/05/05 08:36:28;;;;;;;5.67;1.60;;;;;;;6.48;59.69;94717.72;5088999;28;20208;-78
2021/05/05 08:38:55;;;;;;;6.07;1.80;;;;;;;6.78;57.80;94708.03;5073882;28;20176;-80
2021/05/05 08:41:21;;;;;;;4.03;1.77;;;;;;;7.06;55.89;94709.63;5085841;28;20176;-77
2021/05/05 08:43:46;;;;;;;7.47;1.20;;;;;;;7.18;54.86;94704.28;5065728;28;20251;-78
2021/05/05 08:46:12;;;;;;;4.97;1.50;;;;;;;7.05;54.96;94705.41;5082056;28;20655;-79
2021/05/05 08:48:37;;;;;;;5.90;1.40;;;;;;;6.76;54.30;94702.22;5075055;28;20193;-80
2021/05/05 08:51:06;;;;;;;3.93;1.27;;;;;;;6.58;54.61;94707.34;5069742;28;20640;-79
2021/05/05 08:53:32;;;;;;;3.33;1.60;;;;;;;6.75;55.57;94706.56;5074529;28;20181;-80
2021/05/05 08:55:57;;;;;;;5.27;1.20;;;;;;;6.70;55.30;94702.78;5057161;28;20655;-79
2021/05/05 08:58:22;;;;;;;5.60;1.80;;;;;;;7.11;55.61;94714.38;5074052;28;20178;-78
2021/05/05 09:00:47;;;;;;;7.53;2.97;;;;;;;7.42;55.22;94717.41;5074125;28;20271;-80
2021/05/05 09:03:13;;;;;;;4.03;1.33;;;;;;;7.50;54.98;94719.22;5072213;28;20217;-79
2021/05/05 09:05:50;;;;;;;4.67;1.57;;;;;;;7.25;51.47;94685.47;5074531;28;20188;-78
2021/05/05 09:08:16;;;;;;;4.77;1.80;;;;;;;7.45;55.12;94711.13;5076705;28;20269;-78
2021/05/05 09:10:54;;;;;;;3.80;1.40;;;;;;;7.82;51.88;94708.34;5084860;28;20201;-77
2021/05/05 09:13:42;;;;;;;5.63;1.47;;;;;;;7.45;50.37;94698.22;5081616;28;20185;-78
2021/05/05 09:16:09;;;;;;;4.23;1.20;;;;;;;7.86;50.96;94710.47;5064560;28;20225;-77
2021/05/05 09:19:10;;;;;;;4.57;1.50;;;;;;;8.20;49.74;94707.09;5080573;28;20188;-77
2021/05/05 09:21:38;;;;;;;1.23;1.00;;;;;;;8.23;50.23;94712.81;5064139;28;20656;-77
2021/05/05 09:24:16;;;;;;;2.50;1.10;;;;;;;8.37;48.87;94708.84;5066333;28;20189;-77
2021/05/05 09:26:42;;;;;;;6.10;1.37;;;;;;;8.84;49.25;94708.41;5058088;28;20236;-77
2021/05/05 09:29:07;;;;;;;5.70;1.50;;;;;;;8.30;48.29;94710.38;5065980;28;21021;-77
2021/05/05 09:31:34;;;;;;;3.67;1.10;;;;;;;8.56;48.26;94707.00;5061308;28;20395;-76
2021/05/05 09:34:00;;;;;;;5.97;1.67;;;;;;;8.75;49.80;94702.38;5045348;28;20189;-76
2021/05/05 09:36:26;;;;;;;5.33;1.40;;;;;;;8.85;47.81;94707.44;5047263;28;20281;-76
2021/05/05 09:38:51;;;;;;;4.03;1.27;;;;;;;8.25;45.85;94702.28;5048766;28;20211;-76
2021/05/05 09:41:23;;;;;;;3.67;1.53;;;;;;;8.67;47.50;94704.94;5051182;28;20178;-77
2021/05/05 09:43:52;;;;;;;5.17;1.67;;;;;;;9.11;46.58;94711.72;5041399;28;20566;-77
2021/05/05 09:46:57;;;;;;;6.00;1.57;;;;;;;8.50;45.83;94708.44;5057602;28;20233;-76
2021/05/05 09:49:40;;;;;;;3.37;1.80;;;;;;;8.67;47.96;94709.31;5066076;28;20216;-78
2021/05/05 09:52:12;;;;;;;4.13;1.50;;;;;;;8.39;46.94;94703.50;5048705;28;20189;-77
2021/05/05 09:54:38;;;;;;;3.10;1.40;;;;;;;8.67;46.44;94704.13;5065730;28;21217;-79
2021/05/05 09:57:23;;;;;;;4.43;1.73;;;;;;;9.00;47.01;94715.38;5047233;28;20214;-79
2021/05/05 10:00:08;;;;;;;3.67;1.10;;;;;;;8.71;45.85;94705.44;5049305;28;20186;-79
2021/05/05 10:02:43;;;;;;;6.50;1.87;;;;;;;8.69;46.95;94708.19;5057213;28;20564;-78
2021/05/05 10:05:11;;;;;;;4.27;1.20;;;;;;;8.84;47.62;94712.78;5069344;28;20181;-77
2021/05/05 10:07:56;;;;;;;5.87;1.40;;;;;;;9.05;46.51;94719.13;5059254;28;20196;-77
2021/05/05 10:10:27;;;;;;;4.80;1.47;;;;;;;8.83;45.74;94705.94;5060034;28;20207;-76
2021/05/05 10:12:55;;;;;;;5.90;1.50;;;;;;;9.37;46.42;94715.00;5047505;28;20189;-78
2021/05/05 10:15:21;;;;;;;3.57;1.00;;;;;;;9.12;44.52;94716.72;5047625;28;20274;-77
2021/05/05 10:17:51;;;;;;;5.47;1.77;;;;;;;9.27;45.96;94753.97;5053142;28;20272;-77
2021/05/05 10:20:19;;;;;;;4.93;1.30;;;;;;;8.90;48.65;94803.56;5065418;28;20178;-77
2021/05/05 10:22:45;;;;;;;1.33;0.73;;;;;;;7.35;56.70;94840.34;5063790;28;20646;-77
2021/05/05 10:25:16;;;;;;;2.63;0.50;;;;;;;5.75;63.81;94855.81;5038476;28;20192;-77
2021/05/05 10:27:42;;;;;;;0.77;0.30;;;;;;;4.71;66.91;94867.34;5062881;28;20258;-78
2021/05/05 10:30:09;;;;;;;0.70;0.70;;;;;;;4.57;67.38;94883.09;5042719;28;20198;-79
2021/05/05 10:32:34;;;;;;;1.50;0.87;;;;;;;3.86;69.29;94882.06;5061531;28;20230;-78
2021/05/05 10:35:00;;;;;;;1.00;0.70;;;;;;;3.49;70.54;94902.97;5041476;28;20201;-78
2021/05/05 10:37:59;;;;;;;0.60;0.60;;;;;;;3.36;71.22;94892.84;5048667;28;20594;-76
2021/05/05 10:40:29;;;;;;;1.10;0.53;;;;;;;3.06;72.20;94893.47;5075092;28;20233;-77
2021/05/05 10:42:57;;;;;;;0.50;0.50;;;;;;;2.75;74.09;94894.19;5088878;28;20246;-80
2021/05/05 10:45:30;;;;;;;1.87;0.83;;;;;;;2.60;74.96;94870.50;5084188;28;20173;-79
2021/05/05 10:48:06;;;;;;;1.33;0.80;;;;;;;2.82;75.27;94869.69;5082736;28;20952;-79
2021/05/05 10:50:52;;;;;;;1.70;0.83;;;;;;;2.82;76.36;94878.19;5090731;28;20709;-76
2021/05/05 10:53:19;;;;;;;1.13;1.03;;;;;;;2.94;76.17;94875.66;5059259;28;20184;-77
2021/05/05 10:55:59;;;;;;;2.40;1.67;;;;;;;3.17;75.48;94879.81;5066886;28;20279;-77
2021/05/05 10:58:30;;;;;;;2.37;1.37;;;;;;;3.64;75.26;94893.25;5083780;28;20654;-76
2021/05/05 11:00:58;;;;;;;2.70;1.60;;;;;;;3.63;73.43;94899.31;5060176;28;20170;-76
2021/05/05 11:03:41;;;;;;;1.93;1.30;;;;;;;3.66;74.21;94869.06;5068765;28;20209;-76
2021/05/05 11:06:29;;;;;;;5.43;1.93;;;;;;;4.12;73.16;94869.69;5081365;28;20758;-77
2021/05/05 11:08:54;;;;;;;2.20;1.50;;;;;;;4.38;72.53;94875.28;5088473;28;20173;-77
2021/05/05 11:11:49;;;;;;;2.40;1.90;;;;;;;4.56;71.47;94866.03;5080225;28;20571;-83
2021/05/05 11:14:24;;;;;;;4.13;1.30;;;;;;;4.59;73.82;94875.25;5061197;28;20280;-81
2021/05/05 11:16:52;;;;;;;6.07;2.90;;;;;;;4.88;73.98;94876.22;5073693;28;20261;-78
2021/05/05 11:19:40;;;;;;;6.03;2.43;;;;;;;5.28;73.66;94880.53;5075928;28;20180;-76
2021/05/05 11:22:17;;;;;;;3.27;1.30;;;;;;;5.50;72.16;94879.50;5090387;28;20181;-77
2021/05/05 11:24:42;;;;;;;15.00;8.03;;;;;;;5.67;72.96;94873.72;5082153;28;20202;-78
2021/05/05 11:27:10;;;;;;;4.97;3.13;;;;;;;5.70;72.52;94876.00;5079340;28;20684;-78
2021/05/05 11:29:41;;;;;;;3.03;1.60;;;;;;;6.16;70.70;94882.28;5075430;28;20216;-79
2021/05/05 11:32:14;;;;;;;3.00;1.73;;;;;;;6.38;71.08;94884.56;5084181;28;20192;-78
2021/05/05 11:34:42;;;;;;;4.63;1.83;;;;;;;6.53;70.70;94882.34;5073583;28;20181;-77
2021/05/05 11:37:11;;;;;;;2.20;1.57;;;;;;;6.77;68.72;94885.28;5075614;28;20200;-78
2021/05/05 11:39:39;;;;;;;2.67;1.40;;;;;;;7.00;67.94;94878.03;5065915;28;20173;-79
2021/05/05 11:42:11;;;;;;;3.20;1.50;;;;;;;7.39;67.69;94896.72;5058192;28;20184;-78
2021/05/05 11:44:39;;;;;;;4.37;1.70;;;;;;;7.41;64.65;94888.81;5087280;28;20184;-79
2021/05/05 11:47:24;;;;;;;3.90;1.43;;;;;;;7.37;64.23;94877.97;5088112;28;20205;-78
2021/05/05 11:49:53;;;;;;;3.30;2.30;;;;;;;7.27;63.40;94890.13;5087772;28;20822;-77